sensor_id;sensor_type;location;lat;lon;timestamp;temperature;humidity
20459;DHT22;10388;52.314;7.938;2023-07-13T03:32:09;13.60;99.90
20459;DHT22;10388;52.314;7.938;2023-07-13T03:34:40;13.60;99.90
20459;DHT22;10388;52.314;7.938;2023-07-13T03:37:10;13.60;99.90
20459;DHT22;10388;52.314;7.938;2023-07-13T03:39:41;13.60;99.90
20459;DHT22;10388;52.314;7.938;2023-07-13T03:42:12;13.60;99.90
20459;DHT22;10388;52.314;7.938;2023-07-13T03:44:43;13.60;99.90
20459;DHT22;10388;52.314;7.938;2023-07-13T03:47:22;13.60;99.90
20459;DHT22;10388;52.314;7.938;2023-07-13T03:49:52;13.60;99.90
20459;DHT22;10388;52.314;7.938;2023-07-13T03:52:23;13.60;99.90
20459;DHT22;10388;52.314;7.938;2023-07-13T03:54:54;13.70;99.90
20459;DHT22;10388;52.314;7.938;2023-07-13T03:57:26;13.70;99.90
20459;DHT22;10388;52.314;7.938;2023-07-13T03:59:56;13.70;99.90
20459;DHT22;10388;52.314;7.938;2023-07-13T04:02:27;13.80;99.90
20459;DHT22;10388;52.314;7.938;2023-07-13T04:04:57;13.80;99.90
20459;DHT22;10388;52.314;7.938;2023-07-13T04:07:28;13.80;99.90
20459;DHT22;10388;52.314;7.938;2023-07-13T04:09:58;13.90;99.90
20459;DHT22;10388;52.314;7.938;2023-07-13T04:12:28;13.90;99.90
20459;DHT22;10388;52.314;7.938;2023-07-13T04:14:59;13.90;99.90
20459;DHT22;10388;52.314;7.938;2023-07-13T04:17:30;13.90;99.90
20459;DHT22;10388;52.314;7.938;2023-07-13T04:20:00;13.90;99.90
20459;DHT22;10388;52.314;7.938;2023-07-13T04:22:31;13.90;99.90
20459;DHT22;10388;52.314;7.938;2023-07-13T04:25:01;13.90;99.90
20459;DHT22;10388;52.314;7.938;2023-07-13T04:27:32;13.90;99.90
20459;DHT22;10388;52.314;7.938;2023-07-13T04:30:03;14.00;99.90
20459;DHT22;10388;52.314;7.938;2023-07-13T04:32:33;14.00;99.90
20459;DHT22;10388;52.314;7.938;2023-07-13T04:35:04;14.00;99.90
20459;DHT22;10388;52.314;7.938;2023-07-13T04:37:35;14.10;99.90
20459;DHT22;10388;52.314;7.938;2023-07-13T04:40:06;14.20;99.90
20459;DHT22;10388;52.314;7.938;2023-07-13T04:42:36;14.30;99.90
20459;DHT22;10388;52.314;7.938;2023-07-13T04:45:07;14.40;99.90
20459;DHT22;10388;52.314;7.938;2023-07-13T04:47:38;14.60;99.90
20459;DHT22;10388;52.314;7.938;2023-07-13T04:50:09;14.80;99.90
20459;DHT22;10388;52.314;7.938;2023-07-13T04:52:41;15.70;99.90
20459;DHT22;10388;52.314;7.938;2023-07-13T04:55:12;16.30;99.90
20459;DHT22;10388;52.314;7.938;2023-07-13T04:57:43;15.90;99.90
20459;DHT22;10388;52.314;7.938;2023-07-13T05:00:14;15.70;99.90
20459;DHT22;10388;52.314;7.938;2023-07-13T05:02:48;15.60;99.90
20459;DHT22;10388;52.314;7.938;2023-07-13T05:05:19;15.50;99.90
20459;DHT22;10388;52.314;7.938;2023-07-13T05:07:49;15.40;99.90
20459;DHT22;10388;52.314;7.938;2023-07-13T05:10:20;15.40;99.90
20459;DHT22;10388;52.314;7.938;2023-07-13T05:12:51;15.50;99.90
20459;DHT22;10388;52.314;7.938;2023-07-13T05:15:22;15.50;99.90
20459;DHT22;10388;52.314;7.938;2023-07-13T05:17:53;15.50;99.90
20459;DHT22;10388;52.314;7.938;2023-07-13T05:20:23;15.60;99.90
20459;DHT22;10388;52.314;7.938;2023-07-13T05:22:54;15.70;99.90
20459;DHT22;10388;52.314;7.938;2023-07-13T05:25:24;15.80;99.90
20459;DHT22;10388;52.314;7.938;2023-07-13T05:27:55;15.90;99.90
20459;DHT22;10388;52.314;7.938;2023-07-13T05:30:25;15.80;99.90
20459;DHT22;10388;52.314;7.938;2023-07-13T05:32:56;15.90;99.90
20459;DHT22;10388;52.314;7.938;2023-07-13T05:35:26;15.90;99.90
20459;DHT22;10388;52.314;7.938;2023-07-13T05:37:57;16.00;99.90
20459;DHT22;10388;52.314;7.938;2023-07-13T05:40:27;16.10;99.90
20459;DHT22;10388;52.314;7.938;2023-07-13T05:42:58;16.30;99.90
20459;DHT22;10388;52.314;7.938;2023-07-13T05:45:29;16.30;99.90
20459;DHT22;10388;52.314;7.938;2023-07-13T05:47:59;16.30;99.90
20459;DHT22;10388;52.314;7.938;2023-07-13T05:50:30;16.20;99.90
20459;DHT22;10388;52.314;7.938;2023-07-13T05:53:00;16.30;99.90
20459;DHT22;10388;52.314;7.938;2023-07-13T05:55:31;16.20;99.90
20459;DHT22;10388;52.314;7.938;2023-07-13T05:58:01;16.40;99.90
20459;DHT22;10388;52.314;7.938;2023-07-13T06:00:32;16.50;99.90
20459;DHT22;10388;52.314;7.938;2023-07-13T06:03:03;16.40;99.90
20459;DHT22;10388;52.314;7.938;2023-07-13T06:05:35;16.50;99.90
20459;DHT22;10388;52.314;7.938;2023-07-13T06:08:07;16.70;99.90
20459;DHT22;10388;52.314;7.938;2023-07-13T06:10:37;16.80;99.90
20459;DHT22;10388;52.314;7.938;2023-07-13T06:13:08;16.90;99.90
20459;DHT22;10388;52.314;7.938;2023-07-13T06:15:38;17.00;99.90
20459;DHT22;10388;52.314;7.938;2023-07-13T06:18:09;17.10;99.90
20459;DHT22;10388;52.314;7.938;2023-07-13T06:20:39;17.10;99.90
20459;DHT22;10388;52.314;7.938;2023-07-13T06:23:10;17.20;99.90
20459;DHT22;10388;52.314;7.938;2023-07-13T06:25:40;17.30;99.90
20459;DHT22;10388;52.314;7.938;2023-07-13T06:28:11;17.30;99.90
20459;DHT22;10388;52.314;7.938;2023-07-13T06:30:41;17.40;99.90
20459;DHT22;10388;52.314;7.938;2023-07-13T06:33:12;17.50;99.90
20459;DHT22;10388;52.314;7.938;2023-07-13T06:35:42;17.70;99.90
20459;DHT22;10388;52.314;7.938;2023-07-13T06:38:13;17.70;99.90
20459;DHT22;10388;52.314;7.938;2023-07-13T06:40:43;17.80;99.90
20459;DHT22;10388;52.314;7.938;2023-07-13T06:43:14;17.70;99.90
20459;DHT22;10388;52.314;7.938;2023-07-13T06:45:46;17.80;99.90
20459;DHT22;10388;52.314;7.938;2023-07-13T06:48:18;17.90;99.90
20459;DHT22;10388;52.314;7.938;2023-07-13T06:50:50;18.10;99.90
20459;DHT22;10388;52.314;7.938;2023-07-13T06:53:21;18.10;99.90
20459;DHT22;10388;52.314;7.938;2023-07-13T06:55:52;18.10;99.90
20459;DHT22;10388;52.314;7.938;2023-07-13T06:58:23;18.30;99.90
20459;DHT22;10388;52.314;7.938;2023-07-13T07:00:53;18.40;99.90
20459;DHT22;10388;52.314;7.938;2023-07-13T07:03:24;18.60;99.90
20459;DHT22;10388;52.314;7.938;2023-07-13T07:06:01;18.70;99.90
20459;DHT22;10388;52.314;7.938;2023-07-13T07:08:31;18.80;99.90
20459;DHT22;10388;52.314;7.938;2023-07-13T07:11:02;18.90;99.90
20459;DHT22;10388;52.314;7.938;2023-07-13T07:13:32;18.80;99.90
20459;DHT22;10388;52.314;7.938;2023-07-13T07:16:03;18.90;99.90
20459;DHT22;10388;52.314;7.938;2023-07-13T07:18:34;19.00;99.90
20459;DHT22;10388;52.314;7.938;2023-07-13T07:21:04;19.00;99.90
20459;DHT22;10388;52.314;7.938;2023-07-13T07:23:35;18.70;99.90
20459;DHT22;10388;52.314;7.938;2023-07-13T07:26:05;18.60;99.90
20459;DHT22;10388;52.314;7.938;2023-07-13T07:28:39;18.70;99.90
20459;DHT22;10388;52.314;7.938;2023-07-13T07:31:09;18.50;99.90
20459;DHT22;10388;52.314;7.938;2023-07-13T07:33:40;18.40;99.90
20459;DHT22;10388;52.314;7.938;2023-07-13T07:36:10;18.70;99.90
20459;DHT22;10388;52.314;7.938;2023-07-13T07:38:43;19.10;99.90
20459;DHT22;10388;52.314;7.938;2023-07-13T07:41:13;19.30;99.90
20459;DHT22;10388;52.314;7.938;2023-07-13T07:43:44;19.40;99.90
20459;DHT22;10388;52.314;7.938;2023-07-13T07:46:14;19.60;99.90
20459;DHT22;10388;52.314;7.938;2023-07-13T07:48:45;19.80;99.90
20459;DHT22;10388;52.314;7.938;2023-07-13T07:51:16;20.10;99.90
20459;DHT22;10388;52.314;7.938;2023-07-13T07:53:47;19.90;99.90
20459;DHT22;10388;52.314;7.938;2023-07-13T07:56:18;19.90;99.90
20459;DHT22;10388;52.314;7.938;2023-07-13T07:58:48;19.80;99.90
20459;DHT22;10388;52.314;7.938;2023-07-13T08:01:19;20.00;99.90
20459;DHT22;10388;52.314;7.938;2023-07-13T08:03:50;20.10;99.90
20459;DHT22;10388;52.314;7.938;2023-07-13T08:06:20;19.80;99.90
20459;DHT22;10388;52.314;7.938;2023-07-13T08:08:52;19.60;99.90
20459;DHT22;10388;52.314;7.938;2023-07-13T08:11:23;19.40;99.90
20459;DHT22;10388;52.314;7.938;2023-07-13T08:13:53;19.70;99.90
20459;DHT22;10388;52.314;7.938;2023-07-13T08:16:24;20.30;99.90
20459;DHT22;10388;52.314;7.938;2023-07-13T08:18:54;20.60;99.90
20459;DHT22;10388;52.314;7.938;2023-07-13T08:21:25;20.50;99.90
20459;DHT22;10388;52.314;7.938;2023-07-13T08:23:56;20.50;99.90
20459;DHT22;10388;52.314;7.938;2023-07-13T08:26:26;20.80;99.90
20459;DHT22;10388;52.314;7.938;2023-07-13T08:28:57;20.90;99.90
20459;DHT22;10388;52.314;7.938;2023-07-13T08:31:27;21.20;99.90
20459;DHT22;10388;52.314;7.938;2023-07-13T08:33:58;21.20;99.90
20459;DHT22;10388;52.314;7.938;2023-07-13T08:36:29;21.40;99.90
20459;DHT22;10388;52.314;7.938;2023-07-13T08:38:59;21.30;99.90
20459;DHT22;10388;52.314;7.938;2023-07-13T08:41:30;21.40;99.90
20459;DHT22;10388;52.314;7.938;2023-07-13T08:44:03;21.00;99.90
20459;DHT22;10388;52.314;7.938;2023-07-13T08:46:40;20.70;99.90
20459;DHT22;10388;52.314;7.938;2023-07-13T08:49:15;20.50;99.90
20459;DHT22;10388;52.314;7.938;2023-07-13T08:51:54;20.50;99.90
20459;DHT22;10388;52.314;7.938;2023-07-13T08:54:41;20.40;99.90
20459;DHT22;10388;52.314;7.938;2023-07-13T08:57:16;20.30;99.90
20459;DHT22;10388;52.314;7.938;2023-07-13T08:59:47;20.50;99.90
20459;DHT22;10388;52.314;7.938;2023-07-13T09:02:26;20.70;99.90
20459;DHT22;10388;52.314;7.938;2023-07-13T09:05:44;20.70;99.90
20459;DHT22;10388;52.314;7.938;2023-07-13T09:08:37;20.70;99.90
20459;DHT22;10388;52.314;7.938;2023-07-13T09:14:45;21.10;99.90
20459;DHT22;10388;52.314;7.938;2023-07-13T09:17:35;21.30;99.90
20459;DHT22;10388;52.314;7.938;2023-07-13T09:20:25;21.30;99.90
20459;DHT22;10388;52.314;7.938;2023-07-13T09:22:59;21.40;99.90
20459;DHT22;10388;52.314;7.938;2023-07-13T09:25:33;21.70;99.90
20459;DHT22;10388;52.314;7.938;2023-07-13T09:28:19;21.70;99.90
20459;DHT22;10388;52.314;7.938;2023-07-13T09:31:06;21.40;99.90
20459;DHT22;10388;52.314;7.938;2023-07-13T09:33:37;21.70;99.90
20459;DHT22;10388;52.314;7.938;2023-07-13T09:39:14;21.90;99.90
20459;DHT22;10388;52.314;7.938;2023-07-13T09:42:01;22.10;99.90
20459;DHT22;10388;52.314;7.938;2023-07-13T09:44:38;22.00;99.90
20459;DHT22;10388;52.314;7.938;2023-07-13T09:47:17;22.30;99.90
20459;DHT22;10388;52.314;7.938;2023-07-13T09:49:54;22.60;99.90
20459;DHT22;10388;52.314;7.938;2023-07-13T09:52:27;22.80;99.90
20459;DHT22;10388;52.314;7.938;2023-07-13T09:54:57;22.50;99.90
20459;DHT22;10388;52.314;7.938;2023-07-13T09:57:31;22.70;99.90
20459;DHT22;10388;52.314;7.938;2023-07-13T10:00:02;22.80;99.90
20459;DHT22;10388;52.314;7.938;2023-07-13T10:02:35;22.70;99.90
20459;DHT22;10388;52.314;7.938;2023-07-13T10:05:10;22.80;99.90
20459;DHT22;10388;52.314;7.938;2023-07-13T10:07:44;22.40;99.90
20459;DHT22;10388;52.314;7.938;2023-07-13T10:10:17;21.90;99.90
20459;DHT22;10388;52.314;7.938;2023-07-13T10:12:49;21.90;99.90
20459;DHT22;10388;52.314;7.938;2023-07-13T10:15:24;22.30;99.90
20459;DHT22;10388;52.314;7.938;2023-07-13T10:17:55;22.60;99.90
20459;DHT22;10388;52.314;7.938;2023-07-13T10:20:28;22.40;99.90
20459;DHT22;10388;52.314;7.938;2023-07-13T10:23:05;21.90;99.90
20459;DHT22;10388;52.314;7.938;2023-07-13T10:25:39;21.70;99.90
20459;DHT22;10388;52.314;7.938;2023-07-13T10:28:27;21.60;99.90
20459;DHT22;10388;52.314;7.938;2023-07-13T10:30:59;21.60;99.90
20459;DHT22;10388;52.314;7.938;2023-07-13T10:33:30;21.60;99.90
20459;DHT22;10388;52.314;7.938;2023-07-13T10:39:23;21.60;99.90
20459;DHT22;10388;52.314;7.938;2023-07-13T10:42:02;22.10;99.90
20459;DHT22;10388;52.314;7.938;2023-07-13T10:44:34;22.60;99.90
20459;DHT22;10388;52.314;7.938;2023-07-13T10:47:08;22.80;99.90
20459;DHT22;10388;52.314;7.938;2023-07-13T10:49:43;22.30;99.90
20459;DHT22;10388;52.314;7.938;2023-07-13T10:52:44;21.90;99.90
20459;DHT22;10388;52.314;7.938;2023-07-13T10:55:34;21.90;99.90
20459;DHT22;10388;52.314;7.938;2023-07-13T11:01:17;22.10;99.90
20459;DHT22;10388;52.314;7.938;2023-07-13T11:03:48;21.70;99.90
20459;DHT22;10388;52.314;7.938;2023-07-13T11:08:56;22.30;99.90
20459;DHT22;10388;52.314;7.938;2023-07-13T11:14:04;23.00;99.90
20459;DHT22;10388;52.314;7.938;2023-07-13T11:16:44;23.20;99.90
20459;DHT22;10388;52.314;7.938;2023-07-13T11:25:20;23.70;99.90
20459;DHT22;10388;52.314;7.938;2023-07-13T11:36:04;23.60;99.90
20459;DHT22;10388;52.314;7.938;2023-07-13T11:41:22;23.40;99.90
20459;DHT22;10388;52.314;7.938;2023-07-13T11:44:01;23.60;99.90
20459;DHT22;10388;52.314;7.938;2023-07-13T11:46:33;23.70;99.90
20459;DHT22;10388;52.314;7.938;2023-07-13T11:49:07;23.40;99.90
20459;DHT22;10388;52.314;7.938;2023-07-13T11:51:38;23.70;99.90
20459;DHT22;10388;52.314;7.938;2023-07-13T11:54:43;23.50;99.90
20459;DHT22;10388;52.314;7.938;2023-07-13T11:57:33;23.10;99.90
20459;DHT22;10388;52.314;7.938;2023-07-13T12:00:14;22.90;99.90
20459;DHT22;10388;52.314;7.938;2023-07-13T12:02:51;23.10;99.90
20459;DHT22;10388;52.314;7.938;2023-07-13T12:05:22;23.60;99.90
20459;DHT22;10388;52.314;7.938;2023-07-13T12:07:53;23.50;99.90
20459;DHT22;10388;52.314;7.938;2023-07-13T12:10:29;23.30;99.90
20459;DHT22;10388;52.314;7.938;2023-07-13T12:13:05;23.10;99.90
20459;DHT22;10388;52.314;7.938;2023-07-13T12:15:41;23.00;99.90
20459;DHT22;10388;52.314;7.938;2023-07-13T12:18:23;23.10;99.90
20459;DHT22;10388;52.314;7.938;2023-07-13T12:20:57;23.00;99.90
20459;DHT22;10388;52.314;7.938;2023-07-13T12:23:29;22.60;99.90
20459;DHT22;10388;52.314;7.938;2023-07-13T12:26:03;22.40;99.90
20459;DHT22;10388;52.314;7.938;2023-07-13T12:28:39;22.10;99.90
20459;DHT22;10388;52.314;7.938;2023-07-13T12:34:22;21.50;99.90
20459;DHT22;10388;52.314;7.938;2023-07-13T12:37:02;21.20;99.90
20459;DHT22;10388;52.314;7.938;2023-07-13T12:39:38;20.90;99.90
20459;DHT22;10388;52.314;7.938;2023-07-13T12:42:25;20.50;99.90
20459;DHT22;10388;52.314;7.938;2023-07-13T12:45:02;20.00;99.90
20459;DHT22;10388;52.314;7.938;2023-07-13T12:47:42;19.80;99.90
20459;DHT22;10388;52.314;7.938;2023-07-13T12:50:20;19.40;99.90
20459;DHT22;10388;52.314;7.938;2023-07-13T12:52:59;19.20;99.90
20459;DHT22;10388;52.314;7.938;2023-07-13T12:55:42;19.10;99.90
20459;DHT22;10388;52.314;7.938;2023-07-13T12:58:18;19.20;99.90
20459;DHT22;10388;52.314;7.938;2023-07-13T13:00:50;19.20;99.90
20459;DHT22;10388;52.314;7.938;2023-07-13T13:03:31;19.00;99.90
20459;DHT22;10388;52.314;7.938;2023-07-13T13:06:04;18.80;99.90
20459;DHT22;10388;52.314;7.938;2023-07-13T13:08:36;18.80;99.90
20459;DHT22;10388;52.314;7.938;2023-07-13T13:11:07;19.00;99.90
20459;DHT22;10388;52.314;7.938;2023-07-13T13:13:37;18.90;99.90
20459;DHT22;10388;52.314;7.938;2023-07-13T13:16:14;18.90;99.90
20459;DHT22;10388;52.314;7.938;2023-07-13T13:18:49;19.00;99.90
20459;DHT22;10388;52.314;7.938;2023-07-13T13:21:20;19.30;99.90
20459;DHT22;10388;52.314;7.938;2023-07-13T13:23:50;19.30;99.90
20459;DHT22;10388;52.314;7.938;2023-07-13T13:26:22;19.10;99.90
20459;DHT22;10388;52.314;7.938;2023-07-13T13:28:53;19.10;99.90
20459;DHT22;10388;52.314;7.938;2023-07-13T13:31:24;19.20;99.90
20459;DHT22;10388;52.314;7.938;2023-07-13T13:33:54;18.90;99.90
20459;DHT22;10388;52.314;7.938;2023-07-13T13:36:26;18.90;99.90
20459;DHT22;10388;52.314;7.938;2023-07-13T13:38:56;19.00;99.90
20459;DHT22;10388;52.314;7.938;2023-07-13T13:41:28;18.70;99.90
20459;DHT22;10388;52.314;7.938;2023-07-13T13:44:01;18.40;99.90
20459;DHT22;10388;52.314;7.938;2023-07-13T13:46:35;18.40;99.90
20459;DHT22;10388;52.314;7.938;2023-07-13T13:49:13;18.30;99.90
20459;DHT22;10388;52.314;7.938;2023-07-13T13:51:44;18.50;99.90
20459;DHT22;10388;52.314;7.938;2023-07-13T13:54:16;18.70;99.90
20459;DHT22;10388;52.314;7.938;2023-07-13T13:56:51;18.50;99.90
20459;DHT22;10388;52.314;7.938;2023-07-13T13:59:22;18.60;99.90
20459;DHT22;10388;52.314;7.938;2023-07-13T14:01:53;18.60;99.90
20459;DHT22;10388;52.314;7.938;2023-07-13T14:04:23;18.80;99.90
20459;DHT22;10388;52.314;7.938;2023-07-13T14:06:54;18.90;99.90
20459;DHT22;10388;52.314;7.938;2023-07-13T14:09:24;19.00;99.90
20459;DHT22;10388;52.314;7.938;2023-07-13T14:11:55;19.10;99.90
20459;DHT22;10388;52.314;7.938;2023-07-13T14:14:28;19.10;99.90
20459;DHT22;10388;52.314;7.938;2023-07-13T14:16:59;19.20;99.90
20459;DHT22;10388;52.314;7.938;2023-07-13T14:19:29;19.40;99.90
20459;DHT22;10388;52.314;7.938;2023-07-13T14:22:00;19.30;99.90
20459;DHT22;10388;52.314;7.938;2023-07-13T14:24:30;19.60;99.90
20459;DHT22;10388;52.314;7.938;2023-07-13T14:27:01;19.70;99.90
20459;DHT22;10388;52.314;7.938;2023-07-13T14:29:31;19.60;99.90
20459;DHT22;10388;52.314;7.938;2023-07-13T14:32:04;19.60;99.90
20459;DHT22;10388;52.314;7.938;2023-07-13T14:34:36;19.40;99.90
20459;DHT22;10388;52.314;7.938;2023-07-13T14:37:13;19.30;99.90
20459;DHT22;10388;52.314;7.938;2023-07-13T14:39:45;19.00;99.90
20459;DHT22;10388;52.314;7.938;2023-07-13T14:42:17;18.70;99.90
20459;DHT22;10388;52.314;7.938;2023-07-13T14:44:48;18.60;99.90
20459;DHT22;10388;52.314;7.938;2023-07-13T14:47:19;18.60;99.90
20459;DHT22;10388;52.314;7.938;2023-07-13T14:49:49;18.50;99.90
20459;DHT22;10388;52.314;7.938;2023-07-13T14:52:22;18.50;99.90
20459;DHT22;10388;52.314;7.938;2023-07-13T14:54:53;18.40;99.90
20459;DHT22;10388;52.314;7.938;2023-07-13T14:57:25;18.50;99.90
20459;DHT22;10388;52.314;7.938;2023-07-13T14:59:55;18.60;99.90
20459;DHT22;10388;52.314;7.938;2023-07-13T15:04:56;18.70;99.90
20459;DHT22;10388;52.314;7.938;2023-07-13T15:07:27;18.70;99.90
20459;DHT22;10388;52.314;7.938;2023-07-13T15:09:58;18.70;99.90
20459;DHT22;10388;52.314;7.938;2023-07-13T15:12:28;18.60;99.90
20459;DHT22;10388;52.314;7.938;2023-07-13T15:14:59;18.60;99.90
20459;DHT22;10388;52.314;7.938;2023-07-13T15:17:36;18.60;99.90
20459;DHT22;10388;52.314;7.938;2023-07-13T15:20:27;18.60;99.90
20459;DHT22;10388;52.314;7.938;2023-07-13T15:22:59;18.60;99.90
20459;DHT22;10388;52.314;7.938;2023-07-13T15:25:31;18.60;99.90
20459;DHT22;10388;52.314;7.938;2023-07-13T15:28:03;18.50;99.90
20459;DHT22;10388;52.314;7.938;2023-07-13T15:30:47;18.50;99.90
20459;DHT22;10388;52.314;7.938;2023-07-13T15:33:26;18.40;99.90
20459;DHT22;10388;52.314;7.938;2023-07-13T15:35:57;18.40;99.90
20459;DHT22;10388;52.314;7.938;2023-07-13T15:38:30;18.40;99.90
20459;DHT22;10388;52.314;7.938;2023-07-13T15:41:04;18.40;99.90
20459;DHT22;10388;52.314;7.938;2023-07-13T15:43:40;18.40;99.90
20459;DHT22;10388;52.314;7.938;2023-07-13T15:46:11;18.40;99.90
20459;DHT22;10388;52.314;7.938;2023-07-13T15:48:41;18.40;99.90
20459;DHT22;10388;52.314;7.938;2023-07-13T15:51:38;18.50;99.90
20459;DHT22;10388;52.314;7.938;2023-07-13T15:54:13;18.60;99.90
20459;DHT22;10388;52.314;7.938;2023-07-13T15:56:48;18.70;99.90
20459;DHT22;10388;52.314;7.938;2023-07-13T15:59:19;18.70;99.90
20459;DHT22;10388;52.314;7.938;2023-07-13T16:01:50;18.70;99.90
20459;DHT22;10388;52.314;7.938;2023-07-13T16:04:21;18.70;99.90
20459;DHT22;10388;52.314;7.938;2023-07-13T16:06:51;18.80;99.90
20459;DHT22;10388;52.314;7.938;2023-07-13T16:09:23;18.70;99.90
20459;DHT22;10388;52.314;7.938;2023-07-13T16:11:54;18.70;99.90
20459;DHT22;10388;52.314;7.938;2023-07-13T16:14:27;18.70;99.90
20459;DHT22;10388;52.314;7.938;2023-07-13T16:16:58;18.70;99.90
20459;DHT22;10388;52.314;7.938;2023-07-13T16:19:29;18.70;99.90
20459;DHT22;10388;52.314;7.938;2023-07-13T16:22:00;18.70;99.90
20459;DHT22;10388;52.314;7.938;2023-07-13T16:24:31;18.70;99.90
20459;DHT22;10388;52.314;7.938;2023-07-13T16:27:02;18.70;99.90
20459;DHT22;10388;52.314;7.938;2023-07-13T16:29:34;18.60;99.90
20459;DHT22;10388;52.314;7.938;2023-07-13T16:32:07;18.60;99.90
20459;DHT22;10388;52.314;7.938;2023-07-13T16:34:41;18.60;99.90
20459;DHT22;10388;52.314;7.938;2023-07-13T16:39:50;18.70;99.90
20459;DHT22;10388;52.314;7.938;2023-07-13T16:42:23;18.80;99.90
20459;DHT22;10388;52.314;7.938;2023-07-13T16:44:54;18.80;99.90
20459;DHT22;10388;52.314;7.938;2023-07-13T16:47:26;18.70;99.90
20459;DHT22;10388;52.314;7.938;2023-07-13T16:49:58;18.60;99.90
20459;DHT22;10388;52.314;7.938;2023-07-13T16:52:28;18.60;99.90
20459;DHT22;10388;52.314;7.938;2023-07-13T16:54:59;18.50;99.90
20459;DHT22;10388;52.314;7.938;2023-07-13T16:57:32;18.50;99.90
20459;DHT22;10388;52.314;7.938;2023-07-13T17:00:21;18.50;99.90
20459;DHT22;10388;52.314;7.938;2023-07-13T17:03:00;18.50;99.90
20459;DHT22;10388;52.314;7.938;2023-07-13T17:05:43;18.50;99.90
20459;DHT22;10388;52.314;7.938;2023-07-13T17:08:17;18.40;99.90
20459;DHT22;10388;52.314;7.938;2023-07-13T17:10:53;18.50;99.90
20459;DHT22;10388;52.314;7.938;2023-07-13T17:13:30;18.60;99.90
20459;DHT22;10388;52.314;7.938;2023-07-13T17:16:01;18.70;99.90
20459;DHT22;10388;52.314;7.938;2023-07-13T17:18:32;18.70;99.90
20459;DHT22;10388;52.314;7.938;2023-07-13T17:21:15;18.70;99.90
20459;DHT22;10388;52.314;7.938;2023-07-13T17:23:46;18.60;99.90
20459;DHT22;10388;52.314;7.938;2023-07-13T17:26:22;18.60;99.90
20459;DHT22;10388;52.314;7.938;2023-07-13T17:28:53;18.60;99.90
20459;DHT22;10388;52.314;7.938;2023-07-13T17:31:24;18.50;99.90
20459;DHT22;10388;52.314;7.938;2023-07-13T17:33:54;18.50;99.90
20459;DHT22;10388;52.314;7.938;2023-07-13T17:36:26;18.40;99.90
20459;DHT22;10388;52.314;7.938;2023-07-13T17:38:57;18.40;99.90
20459;DHT22;10388;52.314;7.938;2023-07-13T17:41:27;18.30;99.90
20459;DHT22;10388;52.314;7.938;2023-07-13T17:43:58;18.30;99.90
20459;DHT22;10388;52.314;7.938;2023-07-13T17:46:30;18.30;99.90
20459;DHT22;10388;52.314;7.938;2023-07-13T17:49:02;18.20;99.90
20459;DHT22;10388;52.314;7.938;2023-07-13T17:51:35;18.20;99.90
20459;DHT22;10388;52.314;7.938;2023-07-13T17:54:12;18.20;99.90
20459;DHT22;10388;52.314;7.938;2023-07-13T17:56:44;18.20;99.90
20459;DHT22;10388;52.314;7.938;2023-07-13T17:59:15;18.10;99.90
20459;DHT22;10388;52.314;7.938;2023-07-13T18:01:46;18.10;99.90
20459;DHT22;10388;52.314;7.938;2023-07-13T18:04:18;18.00;99.90
20459;DHT22;10388;52.314;7.938;2023-07-13T18:06:53;18.00;99.90
20459;DHT22;10388;52.314;7.938;2023-07-13T18:09:26;17.80;99.90
20459;DHT22;10388;52.314;7.938;2023-07-13T18:11:57;17.70;99.90
20459;DHT22;10388;52.314;7.938;2023-07-13T18:14:28;17.50;99.90
20459;DHT22;10388;52.314;7.938;2023-07-13T18:17:01;17.30;99.90
20459;DHT22;10388;52.314;7.938;2023-07-13T18:19:39;17.10;99.90
20459;DHT22;10388;52.314;7.938;2023-07-13T18:22:15;17.10;99.90
20459;DHT22;10388;52.314;7.938;2023-07-13T18:24:46;17.10;99.90
20459;DHT22;10388;52.314;7.938;2023-07-13T18:27:17;17.10;99.90
20459;DHT22;10388;52.314;7.938;2023-07-13T18:29:48;17.10;99.90
20459;DHT22;10388;52.314;7.938;2023-07-13T18:32:19;17.10;99.90
20459;DHT22;10388;52.314;7.938;2023-07-13T18:34:50;17.00;99.90
20459;DHT22;10388;52.314;7.938;2023-07-13T18:37:22;17.00;99.90
20459;DHT22;10388;52.314;7.938;2023-07-13T18:39:53;17.00;99.90
20459;DHT22;10388;52.314;7.938;2023-07-13T18:42:23;16.90;99.90
20459;DHT22;10388;52.314;7.938;2023-07-13T18:44:54;16.90;99.90
20459;DHT22;10388;52.314;7.938;2023-07-13T18:47:26;16.90;99.90
20459;DHT22;10388;52.314;7.938;2023-07-13T18:50:31;16.90;99.90
20459;DHT22;10388;52.314;7.938;2023-07-13T18:53:02;16.80;99.90
20459;DHT22;10388;52.314;7.938;2023-07-13T18:55:32;16.90;99.90
20459;DHT22;10388;52.314;7.938;2023-07-13T18:58:03;16.80;99.90
20459;DHT22;10388;52.314;7.938;2023-07-13T19:00:36;16.80;99.90
20459;DHT22;10388;52.314;7.938;2023-07-13T19:03:17;16.80;99.90
20459;DHT22;10388;52.314;7.938;2023-07-13T19:05:49;16.80;99.90
20459;DHT22;10388;52.314;7.938;2023-07-13T19:08:22;16.70;99.90
20459;DHT22;10388;52.314;7.938;2023-07-13T19:10:53;16.70;99.90
20459;DHT22;10388;52.314;7.938;2023-07-13T19:13:26;16.70;99.90
20459;DHT22;10388;52.314;7.938;2023-07-13T19:15:57;16.60;99.90
20459;DHT22;10388;52.314;7.938;2023-07-13T19:18:28;16.60;99.90
20459;DHT22;10388;52.314;7.938;2023-07-13T19:21:00;16.60;99.90
20459;DHT22;10388;52.314;7.938;2023-07-13T19:23:36;16.60;99.90
20459;DHT22;10388;52.314;7.938;2023-07-13T19:26:26;16.60;99.90
20459;DHT22;10388;52.314;7.938;2023-07-13T19:28:58;16.60;99.90
20459;DHT22;10388;52.314;7.938;2023-07-13T19:31:34;16.60;99.90
20459;DHT22;10388;52.314;7.938;2023-07-13T19:34:26;16.60;99.90
20459;DHT22;10388;52.314;7.938;2023-07-13T19:37:04;16.50;99.90
20459;DHT22;10388;52.314;7.938;2023-07-13T19:39:37;16.40;99.90
20459;DHT22;10388;52.314;7.938;2023-07-13T19:42:17;16.40;99.90
20459;DHT22;10388;52.314;7.938;2023-07-13T19:44:50;16.40;99.90
20459;DHT22;10388;52.314;7.938;2023-07-13T19:47:21;16.30;99.90
20459;DHT22;10388;52.314;7.938;2023-07-13T19:49:52;16.30;99.90
20459;DHT22;10388;52.314;7.938;2023-07-13T19:52:26;16.30;99.90
20459;DHT22;10388;52.314;7.938;2023-07-13T19:54:58;16.20;99.90
20459;DHT22;10388;52.314;7.938;2023-07-13T19:57:29;16.20;99.90
20459;DHT22;10388;52.314;7.938;2023-07-13T19:59:59;16.10;99.90
20459;DHT22;10388;52.314;7.938;2023-07-13T20:02:32;16.10;99.90
20459;DHT22;10388;52.314;7.938;2023-07-13T20:05:03;16.10;99.90
20459;DHT22;10388;52.314;7.938;2023-07-13T20:07:34;16.10;99.90
20459;DHT22;10388;52.314;7.938;2023-07-13T20:10:28;16.10;99.90
20459;DHT22;10388;52.314;7.938;2023-07-13T20:12:59;16.10;99.90
20459;DHT22;10388;52.314;7.938;2023-07-13T20:15:31;16.10;99.90
20459;DHT22;10388;52.314;7.938;2023-07-13T20:18:02;16.10;99.90
20459;DHT22;10388;52.314;7.938;2023-07-13T20:20:38;16.10;99.90
20459;DHT22;10388;52.314;7.938;2023-07-13T20:23:20;16.10;99.90